Time;durP1;ratioP1;P1;durP2;ratioP2;P2;SDS_P1;SDS_P2;PMS_P1;PMS_P2;Temp;Humidity;BMP_temperature;BMP_pressure;BME280_temperature;BME280_humidity;BME280_pressure;Samples;Min_cycle;Max_cycle;Signal;HPM_P1;HPM_P2
2021/08/16 00:02:08;;;;;;;9.50;4.25;;;20.60;99.90;;;;;;5050547;28;20018;-67
2021/08/16 00:04:34;;;;;;;9.07;4.82;;;20.50;99.90;;;;;;5050242;28;20541;-68
2021/08/16 00:07:00;;;;;;;6.63;4.57;;;20.50;99.90;;;;;;5035133;28;20040;-67
2021/08/16 00:09:27;;;;;;;9.05;4.68;;;20.50;99.90;;;;;;5034879;28;20095;-67
2021/08/16 00:11:53;;;;;;;8.00;4.65;;;20.40;99.90;;;;;;5050361;28;20100;-67
2021/08/16 00:14:19;;;;;;;6.82;4.50;;;20.40;99.90;;;;;;5034573;28;20029;-67
2021/08/16 00:16:45;;;;;;;10.30;4.95;;;20.40;99.90;;;;;;5034961;28;20087;-67
2021/08/16 00:19:12;;;;;;;8.60;4.80;;;20.30;99.90;;;;;;5035018;28;20131;-67
2021/08/16 00:21:37;;;;;;;7.32;4.40;;;20.30;99.90;;;;;;5049955;28;20064;-68
2021/08/16 00:24:04;;;;;;;13.60;4.60;;;20.30;99.90;;;;;;5034917;28;20068;-67
2021/08/16 00:26:31;;;;;;;9.23;4.80;;;20.30;99.90;;;;;;5034587;28;20116;-67
2021/08/16 00:29:00;;;;;;;9.15;4.75;;;20.40;99.90;;;;;;5034548;28;20112;-68
2021/08/16 00:31:29;;;;;;;8.57;5.00;;;20.30;99.90;;;;;;5033093;28;20025;-68
2021/08/16 00:33:56;;;;;;;8.57;5.28;;;20.50;99.90;;;;;;5034457;28;20033;-68
2021/08/16 00:36:22;;;;;;;9.20;4.72;;;20.50;99.90;;;;;;5049812;28;20060;-68
2021/08/16 00:38:48;;;;;;;9.45;4.80;;;20.50;99.90;;;;;;5034374;28;20029;-68
2021/08/16 00:41:16;;;;;;;8.77;5.00;;;20.50;99.90;;;;;;5034689;28;20508;-67
2021/08/16 00:43:41;;;;;;;15.60;5.10;;;20.40;99.90;;;;;;5049190;28;20453;-67
2021/08/16 00:46:07;;;;;;;9.23;4.85;;;20.30;99.90;;;;;;5034337;28;20065;-67
2021/08/16 00:48:33;;;;;;;8.75;5.03;;;20.30;99.90;;;;;;5049301;28;20034;-67
2021/08/16 00:51:00;;;;;;;8.18;5.07;;;20.30;99.90;;;;;;5034392;28;20021;-67
2021/08/16 00:53:29;;;;;;;12.98;4.75;;;20.40;99.90;;;;;;5049414;28;20029;-68
2021/08/16 00:55:56;;;;;;;8.45;4.82;;;20.40;99.90;;;;;;5049187;28;20029;-68
2021/08/16 00:58:22;;;;;;;8.15;5.18;;;20.40;99.90;;;;;;5049265;28;20052;-68
2021/08/16 01:00:48;;;;;;;11.13;4.80;;;20.40;99.90;;;;;;5033727;28;20033;-68
2021/08/16 01:03:14;;;;;;;10.55;5.15;;;20.30;99.90;;;;;;5049312;28;20033;-67
2021/08/16 01:05:40;;;;;;;10.68;4.80;;;20.30;99.90;;;;;;5032335;28;20032;-67
2021/08/16 01:08:06;;;;;;;10.98;5.20;;;20.40;99.90;;;;;;5033921;28;20030;-67
2021/08/16 01:10:33;;;;;;;8.05;4.80;;;20.30;99.90;;;;;;5033660;28;20083;-68
2021/08/16 01:13:00;;;;;;;10.77;5.10;;;20.30;99.90;;;;;;5048996;28;20042;-67
2021/08/16 01:15:28;;;;;;;7.93;4.72;;;20.30;99.90;;;;;;5048925;28;20080;-67
2021/08/16 01:17:54;;;;;;;9.52;6.30;;;20.20;99.90;;;;;;5032642;28;20053;-67
2021/08/16 01:20:20;;;;;;;7.15;5.15;;;20.10;99.90;;;;;;5033591;28;20025;-67
2021/08/16 01:22:47;;;;;;;11.55;5.47;;;19.90;99.90;;;;;;5048535;28;20056;-67
2021/08/16 01:25:13;;;;;;;8.50;5.30;;;19.90;99.90;;;;;;5033491;28;20042;-67
2021/08/16 01:27:39;;;;;;;10.27;6.15;;;20.00;99.90;;;;;;5033507;28;20041;-67
2021/08/16 01:30:13;;;;;;;12.13;6.20;;;20.00;99.90;;;;;;5033397;28;20116;-68
2021/08/16 01:32:40;;;;;;;10.60;5.22;;;20.10;99.90;;;;;;5047986;28;20327;-67
2021/08/16 01:35:07;;;;;;;10.55;6.22;;;20.20;99.90;;;;;;5033249;28;20030;-67
2021/08/16 01:37:33;;;;;;;9.73;5.57;;;20.20;99.90;;;;;;5033272;28;20071;-67
2021/08/16 01:39:59;;;;;;;9.75;5.97;;;20.40;99.90;;;;;;5048002;28;20406;-67
2021/08/16 01:42:24;;;;;;;14.52;5.45;;;20.40;99.90;;;;;;5032601;28;20171;-67
2021/08/16 01:44:50;;;;;;;8.40;5.25;;;20.50;99.90;;;;;;5032819;28;20439;-67
2021/08/16 01:47:16;;;;;;;12.80;5.70;;;20.50;99.90;;;;;;5033034;28;20040;-67
2021/08/16 01:49:42;;;;;;;12.30;5.47;;;20.50;99.90;;;;;;5032779;28;20370;-67
2021/08/16 01:52:08;;;;;;;8.25;5.47;;;20.50;99.90;;;;;;5048323;28;20159;-67
2021/08/16 01:54:35;;;;;;;14.40;5.45;;;20.50;99.90;;;;;;5032896;28;20474;-66
2021/08/16 01:57:02;;;;;;;9.13;5.30;;;20.50;99.90;;;;;;5033052;28;20557;-67
2021/08/16 01:59:27;;;;;;;9.52;5.60;;;20.50;99.90;;;;;;5048333;28;20057;-67
2021/08/16 02:01:53;;;;;;;12.63;5.80;;;20.50;99.90;;;;;;5032877;28;20103;-68
2021/08/16 02:04:19;;;;;;;12.68;6.03;;;20.30;99.90;;;;;;5032797;28;20037;-67
2021/08/16 02:06:45;;;;;;;8.13;5.50;;;20.20;99.90;;;;;;5032824;28;20036;-67
2021/08/16 02:09:10;;;;;;;8.52;5.93;;;20.30;99.90;;;;;;5031661;28;20038;-66
2021/08/16 02:11:36;;;;;;;9.18;5.70;;;20.30;99.90;;;;;;5032771;28;20087;-67
2021/08/16 02:14:02;;;;;;;11.70;5.32;;;20.20;99.90;;;;;;5032749;28;20037;-67
2021/08/16 02:16:28;;;;;;;12.65;5.85;;;20.40;99.90;;;;;;5031174;28;20490;-67
2021/08/16 02:18:53;;;;;;;12.00;5.57;;;20.40;99.90;;;;;;5032342;28;20412;-67
2021/08/16 02:21:19;;;;;;;10.77;5.82;;;20.40;99.90;;;;;;5032758;28;20033;-67
2021/08/16 02:23:45;;;;;;;11.25;6.13;;;20.50;99.90;;;;;;5032331;28;20072;-67
2021/08/16 02:26:11;;;;;;;10.43;6.43;;;20.70;99.90;;;;;;5047670;28;20033;-67
2021/08/16 02:28:36;;;;;;;8.70;5.90;;;20.70;99.90;;;;;;5032442;28;20036;-67
2021/08/16 02:31:02;;;;;;;8.57;5.40;;;20.70;99.90;;;;;;5031069;28;20041;-67
2021/08/16 02:33:29;;;;;;;8.93;5.63;;;20.80;99.90;;;;;;5047731;28;20084;-67
2021/08/16 02:35:54;;;;;;;12.68;7.25;;;21.00;99.90;;;;;;5032139;28;20037;-67
2021/08/16 02:38:20;;;;;;;7.25;4.72;;;21.00;99.90;;;;;;5031997;28;20026;-67
2021/08/16 02:40:46;;;;;;;10.50;5.03;;;21.10;99.90;;;;;;5030818;28;20029;-67
2021/08/16 02:43:12;;;;;;;8.45;4.45;;;21.20;99.90;;;;;;5031306;28;20084;-67
2021/08/16 02:45:37;;;;;;;7.40;4.60;;;21.30;99.90;;;;;;5032219;28;20079;-67
2021/08/16 02:48:04;;;;;;;10.10;4.57;;;21.40;99.90;;;;;;5032416;28;20423;-67
2021/08/16 02:50:29;;;;;;;7.53;3.45;;;21.60;99.90;;;;;;5032017;28;20033;-67
2021/08/16 02:52:56;;;;;;;10.00;3.40;;;21.70;99.90;;;;;;5032247;28;20470;-67
2021/08/16 02:55:22;;;;;;;6.68;3.60;;;21.90;99.90;;;;;;5031964;28;20104;-67
2021/08/16 02:57:48;;;;;;;11.38;4.13;;;22.20;99.90;;;;;;5031913;28;20065;-67
2021/08/16 03:00:14;;;;;;;6.22;3.33;;;22.20;99.90;;;;;;5032245;28;20032;-67
2021/08/16 03:02:42;;;;;;;5.88;3.20;;;22.20;99.90;;;;;;5031999;28;20528;-66
2021/08/16 03:05:09;;;;;;;5.97;3.28;;;22.30;99.90;;;;;;5046971;28;20041;-66
2021/08/16 03:07:34;;;;;;;9.05;3.25;;;22.40;99.90;;;;;;5032002;28;20047;-66
2021/08/16 03:10:00;;;;;;;6.38;3.00;;;22.30;99.90;;;;;;5047458;28;20108;-66
2021/08/16 03:12:26;;;;;;;5.88;3.05;;;22.20;99.90;;;;;;5031977;28;20084;-66
2021/08/16 03:14:51;;;;;;;7.43;3.13;;;22.20;99.90;;;;;;5047116;28;20467;-66
2021/08/16 03:17:17;;;;;;;7.70;3.13;;;22.20;99.90;;;;;;5031945;28;20033;-66
2021/08/16 03:19:43;;;;;;;5.50;2.85;;;22.20;99.90;;;;;;5031712;28;20040;-67
2021/08/16 03:22:09;;;;;;;4.82;2.80;;;22.10;99.90;;;;;;5031887;28;20034;-67
2021/08/16 03:24:34;;;;;;;8.40;3.42;;;22.10;99.90;;;;;;5031643;28;20041;-67
2021/08/16 03:27:00;;;;;;;8.55;3.00;;;22.10;99.90;;;;;;5031663;28;20033;-66
2021/08/16 03:29:26;;;;;;;6.75;2.75;;;22.00;99.90;;;;;;5031643;28;20029;-67
2021/08/16 03:31:52;;;;;;;4.85;2.78;;;22.00;99.90;;;;;;5046993;28;20037;-67
2021/08/16 03:34:18;;;;;;;7.38;3.05;;;21.90;99.90;;;;;;5047286;28;20031;-67
2021/08/16 03:36:44;;;;;;;5.65;2.85;;;22.00;99.90;;;;;;5031488;28;20029;-67
2021/08/16 03:39:10;;;;;;;5.70;2.60;;;22.00;99.90;;;;;;5031654;28;20393;-67
2021/08/16 03:41:36;;;;;;;6.15;2.45;;;22.00;99.90;;;;;;5030481;28;20030;-67
2021/08/16 03:44:03;;;;;;;6.40;2.83;;;22.00;99.90;;;;;;5031734;28;20034;-67
2021/08/16 03:46:29;;;;;;;5.43;2.65;;;21.90;99.90;;;;;;5045628;28;20032;-67
2021/08/16 03:48:55;;;;;;;6.07;2.72;;;21.70;99.90;;;;;;5025635;28;20025;-66
2021/08/16 03:51:22;;;;;;;5.35;2.70;;;21.80;99.90;;;;;;5038232;28;20026;-64
2021/08/16 03:53:47;;;;;;;5.07;2.60;;;21.70;99.90;;;;;;5031532;28;20033;-64
2021/08/16 03:56:13;;;;;;;5.25;2.80;;;21.80;99.90;;;;;;5031289;28;20385;-65
2021/08/16 03:58:41;;;;;;;6.45;2.50;;;21.90;99.90;;;;;;5034742;28;20033;-64
2021/08/16 04:01:09;;;;;;;7.32;2.72;;;21.90;99.90;;;;;;5035531;28;20021;-65
2021/08/16 04:03:35;;;;;;;6.57;3.05;;;21.80;99.90;;;;;;5035161;28;20083;-66
2021/08/16 04:06:01;;;;;;;5.32;2.42;;;21.80;99.90;;;;;;5034785;28;20033;-66
2021/08/16 04:08:26;;;;;;;8.48;2.80;;;21.70;99.90;;;;;;5034722;28;20034;-65
2021/08/16 04:10:52;;;;;;;9.23;3.40;;;21.60;99.90;;;;;;5033370;28;20033;-66
2021/08/16 04:13:18;;;;;;;6.03;2.80;;;21.50;99.90;;;;;;5034622;28;20076;-66
2021/08/16 04:15:43;;;;;;;5.07;2.40;;;21.50;99.90;;;;;;5032462;28;20045;-67
2021/08/16 04:18:09;;;;;;;6.57;3.10;;;21.50;99.90;;;;;;5033026;28;20397;-66
2021/08/16 04:20:35;;;;;;;6.57;2.22;;;21.50;99.90;;;;;;5034296;28;20473;-63
2021/08/16 04:23:01;;;;;;;4.65;2.45;;;21.40;99.90;;;;;;5034011;28;20033;-63
2021/08/16 04:25:27;;;;;;;6.55;2.50;;;21.40;99.90;;;;;;5034834;28;20409;-66
2021/08/16 04:27:53;;;;;;;6.60;2.83;;;21.30;99.90;;;;;;5031375;28;20041;-64
2021/08/16 04:30:18;;;;;;;6.03;2.97;;;21.30;99.90;;;;;;5023699;28;20036;-65
2021/08/16 04:32:44;;;;;;;4.78;2.60;;;21.20;99.90;;;;;;5025248;28;20107;-64
2021/08/16 04:35:10;;;;;;;4.93;2.75;;;21.20;99.90;;;;;;5022200;28;20390;-64
2021/08/16 04:37:39;;;;;;;5.78;2.25;;;21.10;99.90;;;;;;5026078;28;20037;-64
2021/08/16 04:40:08;;;;;;;5.68;2.60;;;21.00;99.90;;;;;;5007626;28;20510;-65
2021/08/16 04:42:34;;;;;;;6.05;2.00;;;21.00;99.90;;;;;;5013114;28;20046;-64
2021/08/16 04:45:00;;;;;;;6.90;2.15;;;21.10;99.90;;;;;;5029316;28;20481;-65
2021/08/16 04:47:26;;;;;;;5.18;2.17;;;21.00;99.90;;;;;;5013357;28;20030;-65
2021/08/16 04:49:54;;;;;;;4.80;1.73;;;20.90;99.90;;;;;;5014036;28;20048;-65
2021/08/16 04:52:20;;;;;;;8.55;3.20;;;20.90;99.90;;;;;;5034204;28;20042;-66
2021/08/16 04:54:46;;;;;;;7.72;2.10;;;20.90;99.90;;;;;;5049470;28;20076;-65
2021/08/16 04:57:12;;;;;;;5.18;2.15;;;20.90;99.90;;;;;;5034202;28;20084;-64
2021/08/16 04:59:37;;;;;;;13.80;2.20;;;20.80;99.90;;;;;;5034227;28;20088;-66
2021/08/16 05:02:03;;;;;;;5.78;2.10;;;20.80;99.90;;;;;;5033911;28;20037;-65
2021/08/16 05:04:29;;;;;;;10.63;2.10;;;20.80;99.90;;;;;;5033958;28;20033;-66
2021/08/16 05:06:55;;;;;;;9.13;2.10;;;20.80;99.90;;;;;;5047227;28;20129;-66
2021/08/16 05:09:21;;;;;;;4.70;1.80;;;20.80;99.90;;;;;;5032412;28;20112;-66
2021/08/16 05:11:47;;;;;;;11.07;2.20;;;20.70;99.90;;;;;;5023867;28;20053;-66
2021/08/16 05:14:12;;;;;;;4.10;1.73;;;20.80;99.90;;;;;;5027697;28;20029;-67
2021/08/16 05:16:38;;;;;;;8.73;1.88;;;20.60;99.90;;;;;;5025833;28;20042;-66
2021/08/16 05:19:04;;;;;;;3.42;1.50;;;20.60;99.90;;;;;;4996388;28;20041;-66
2021/08/16 05:21:31;;;;;;;7.90;2.05;;;20.60;99.90;;;;;;5024957;28;20171;-66
2021/08/16 05:23:57;;;;;;;9.70;2.55;;;20.50;99.90;;;;;;5030421;28;20033;-66
2021/08/16 05:26:23;;;;;;;7.65;1.88;;;20.50;99.90;;;;;;5030302;28;20072;-72
2021/08/16 05:28:49;;;;;;;7.07;2.00;;;20.60;99.90;;;;;;5046141;28;20057;-72
2021/08/16 05:31:15;;;;;;;4.82;1.52;;;20.60;99.90;;;;;;5031958;28;20026;-72
2021/08/16 05:33:40;;;;;;;7.05;2.00;;;20.60;99.90;;;;;;5037820;28;20034;-72
2021/08/16 05:36:06;;;;;;;8.68;2.05;;;20.50;99.80;;;;;;5028386;28;20041;-72
2021/08/16 05:38:32;;;;;;;5.53;1.85;;;20.50;99.70;;;;;;5033580;28;20041;-72
2021/08/16 05:40:58;;;;;;;7.45;2.47;;;20.50;99.60;;;;;;5033480;28;20045;-72
2021/08/16 05:43:23;;;;;;;7.88;2.40;;;20.50;99.80;;;;;;5033085;28;20033;-72
2021/08/16 05:45:49;;;;;;;4.78;1.88;;;20.60;99.60;;;;;;5048421;28;20033;-72
2021/08/16 05:48:17;;;;;;;9.45;1.77;;;20.60;99.50;;;;;;5033349;28;20041;-73
2021/08/16 05:50:44;;;;;;;6.47;2.10;;;20.70;99.50;;;;;;5033175;28;20116;-72
2021/08/16 05:53:11;;;;;;;5.30;1.70;;;20.60;99.80;;;;;;5033215;28;20037;-72
2021/08/16 05:55:37;;;;;;;5.53;1.73;;;20.70;99.70;;;;;;5031822;28;20068;-72
2021/08/16 05:58:03;;;;;;;4.97;1.80;;;20.60;99.70;;;;;;5032902;28;20493;-72
2021/08/16 06:00:29;;;;;;;7.68;2.30;;;20.60;99.90;;;;;;5048430;28;20171;-72
2021/08/16 06:02:54;;;;;;;9.75;2.25;;;20.70;99.90;;;;;;5015999;28;20466;-72
2021/08/16 06:05:20;;;;;;;8.90;1.98;;;20.70;99.90;;;;;;5030221;28;20508;-72
2021/08/16 06:07:46;;;;;;;7.53;1.98;;;20.80;99.90;;;;;;5031621;28;20021;-72
2021/08/16 06:10:12;;;;;;;6.80;2.13;;;20.90;99.90;;;;;;5031833;28;20037;-72
2021/08/16 06:12:37;;;;;;;7.13;2.25;;;20.80;99.90;;;;;;5048039;28;20033;-72
2021/08/16 06:15:04;;;;;;;6.70;2.10;;;21.00;99.90;;;;;;5032667;28;20045;-72
2021/08/16 06:17:31;;;;;;;5.75;1.98;;;20.80;99.90;;;;;;5032820;28;20021;-72
2021/08/16 06:19:57;;;;;;;7.07;2.10;;;20.70;99.90;;;;;;5032808;28;20458;-72
2021/08/16 06:22:22;;;;;;;10.80;3.10;;;20.60;99.90;;;;;;5032728;28;20030;-72
2021/08/16 06:24:48;;;;;;;5.47;1.75;;;20.70;99.90;;;;;;5032704;28;20500;-72
2021/08/16 06:27:14;;;;;;;6.03;1.90;;;20.90;99.90;;;;;;5032401;28;20037;-72
2021/08/16 06:29:40;;;;;;;8.80;1.88;;;20.90;99.90;;;;;;5032814;28;20124;-72
2021/08/16 06:32:06;;;;;;;6.85;2.05;;;20.90;99.90;;;;;;5032135;28;20103;-72
2021/08/16 06:34:31;;;;;;;7.40;2.05;;;20.90;99.90;;;;;;5047999;28;20036;-72
2021/08/16 06:36:57;;;;;;;7.20;2.25;;;20.70;99.90;;;;;;5032148;28;20029;-72
2021/08/16 06:39:26;;;;;;;7.30;2.47;;;20.90;99.90;;;;;;5032258;28;20116;-72
2021/08/16 06:41:55;;;;;;;5.00;2.05;;;20.90;99.90;;;;;;5032442;28;20030;-71
2021/08/16 06:44:23;;;;;;;6.85;2.17;;;20.80;99.90;;;;;;5032152;28;20440;-72
2021/08/16 06:46:50;;;;;;;4.40;1.90;;;20.90;99.90;;;;;;5047339;28;20389;-71
2021/08/16 06:49:15;;;;;;;9.05;2.13;;;20.70;99.90;;;;;;5032038;28;20026;-73
2021/08/16 06:51:42;;;;;;;9.90;1.75;;;20.80;99.90;;;;;;5047563;28;20168;-72
2021/08/16 06:54:08;;;;;;;6.10;2.28;;;20.70;99.90;;;;;;5032257;28;20033;-72
2021/08/16 06:56:34;;;;;;;5.90;2.28;;;20.70;99.90;;;;;;5047802;28;20038;-72
2021/08/16 06:59:00;;;;;;;8.70;2.38;;;20.70;99.90;;;;;;5032025;28;20044;-71
2021/08/16 07:01:28;;;;;;;7.38;2.00;;;20.80;99.90;;;;;;5030880;28;20493;-70
2021/08/16 07:03:56;;;;;;;8.27;1.75;;;20.70;99.90;;;;;;5047415;28;20358;-71
2021/08/16 07:06:23;;;;;;;7.75;2.25;;;20.70;99.90;;;;;;5047269;28;20030;-72
2021/08/16 07:08:50;;;;;;;11.35;3.00;;;20.70;99.90;;;;;;5032033;28;20049;-71
2021/08/16 07:11:16;;;;;;;7.22;1.83;;;20.70;99.90;;;;;;5047189;28;20588;-71
2021/08/16 07:13:42;;;;;;;7.13;2.00;;;20.70;99.90;;;;;;5032040;28;20049;-70
2021/08/16 07:16:09;;;;;;;6.03;1.70;;;20.60;99.90;;;;;;5031695;28;20061;-71
2021/08/16 07:18:35;;;;;;;6.65;1.58;;;20.60;99.90;;;;;;5031936;28;20049;-71
2021/08/16 07:21:05;;;;;;;8.68;1.70;;;20.50;99.40;;;;;;5047087;28;20037;-71
2021/08/16 07:23:32;;;;;;;8.07;1.70;;;20.60;99.60;;;;;;5046981;28;20041;-71
2021/08/16 07:26:01;;;;;;;5.78;1.90;;;20.70;99.60;;;;;;5031761;28;20049;-71
2021/08/16 07:28:28;;;;;;;7.88;2.08;;;20.80;99.50;;;;;;5047374;28;20033;-71
2021/08/16 07:30:55;;;;;;;9.52;1.83;;;20.90;99.70;;;;;;5049922;28;20548;-71
2021/08/16 07:33:21;;;;;;;8.18;1.65;;;21.00;99.50;;;;;;5035738;28;20068;-71
2021/08/16 07:35:47;;;;;;;4.93;1.30;;;21.00;99.60;;;;;;5035958;28;20038;-71
2021/08/16 07:38:13;;;;;;;10.30;2.97;;;21.10;99.00;;;;;;5035521;28;20041;-71
2021/08/16 07:40:39;;;;;;;6.85;1.60;;;21.20;99.10;;;;;;5050965;28;20033;-71
2021/08/16 07:43:05;;;;;;;12.57;1.52;;;21.10;98.70;;;;;;5035297;28;20437;-71
2021/08/16 07:45:30;;;;;;;6.72;2.28;;;21.10;98.90;;;;;;5035681;28;20037;-70
2021/08/16 07:47:57;;;;;;;6.28;1.80;;;21.20;99.30;;;;;;5035560;28;20053;-70
2021/08/16 07:50:23;;;;;;;5.82;2.00;;;21.30;99.20;;;;;;5035401;28;20037;-70
2021/08/16 07:52:49;;;;;;;7.15;1.63;;;21.20;98.90;;;;;;5035613;28;20044;-70
2021/08/16 07:55:15;;;;;;;6.32;1.60;;;21.10;99.40;;;;;;5035373;28;20041;-70
2021/08/16 07:57:41;;;;;;;4.55;1.60;;;21.20;99.70;;;;;;5035300;28;20037;-70
2021/08/16 08:00:09;;;;;;;7.13;2.00;;;21.00;99.90;;;;;;5050646;28;20040;-70
2021/08/16 08:02:42;;;;;;;4.90;1.77;;;21.10;99.90;;;;;;5035277;28;20121;-70
2021/08/16 08:05:11;;;;;;;7.25;1.60;;;21.10;99.90;;;;;;5034962;28;20159;-71
2021/08/16 08:07:37;;;;;;;6.25;1.52;;;21.20;99.70;;;;;;5035293;28;20053;-69
2021/08/16 08:10:05;;;;;;;5.13;1.77;;;21.10;99.40;;;;;;5035350;28;20057;-69
2021/08/16 08:12:31;;;;;;;7.53;1.70;;;21.10;99.30;;;;;;5035459;28;20044;-69
2021/08/16 08:14:57;;;;;;;4.18;1.27;;;21.10;99.20;;;;;;5050153;28;20064;-69
2021/08/16 08:17:23;;;;;;;16.95;3.30;;;21.10;99.00;;;;;;5035203;28;20041;-70
2021/08/16 08:19:50;;;;;;;4.88;1.50;;;21.10;99.30;;;;;;5034810;28;20105;-70
2021/08/16 08:22:17;;;;;;;4.28;1.60;;;21.30;99.60;;;;;;5049836;28;20198;-70
2021/08/16 08:24:43;;;;;;;6.93;2.20;;;21.40;99.10;;;;;;5034537;28;20064;-69
2021/08/16 08:27:09;;;;;;;4.03;1.35;;;21.60;98.90;;;;;;5034905;28;20029;-69
2021/08/16 08:29:35;;;;;;;6.50;1.58;;;21.60;98.70;;;;;;5049918;28;20112;-70
2021/08/16 08:32:00;;;;;;;6.60;1.58;;;21.60;98.70;;;;;;5034686;28;20030;-70
2021/08/16 08:34:26;;;;;;;10.77;1.77;;;21.70;99.30;;;;;;5050159;28;20037;-70
2021/08/16 08:36:52;;;;;;;5.00;1.58;;;21.90;99.10;;;;;;5034770;28;20029;-71
2021/08/16 08:39:18;;;;;;;6.10;1.48;;;21.90;98.30;;;;;;5034201;28;20029;-70
2021/08/16 08:41:46;;;;;;;5.03;1.35;;;21.70;98.60;;;;;;5033446;28;20029;-70
2021/08/16 08:44:14;;;;;;;4.43;1.42;;;21.60;98.50;;;;;;5049342;28;20095;-70
2021/08/16 08:46:42;;;;;;;6.30;1.70;;;21.60;98.70;;;;;;5034602;28;20032;-71
2021/08/16 08:49:10;;;;;;;5.45;1.60;;;21.60;99.10;;;;;;5033885;28;20422;-70
2021/08/16 08:51:37;;;;;;;4.13;1.83;;;21.80;98.50;;;;;;5034252;28;20104;-70
2021/08/16 08:54:07;;;;;;;6.40;1.83;;;21.70;98.10;;;;;;5049113;28;20037;-71
2021/08/16 08:56:34;;;;;;;6.25;2.05;;;21.50;98.30;;;;;;5034218;28;20425;-71
2021/08/16 08:59:00;;;;;;;5.47;1.10;;;21.60;98.70;;;;;;5049351;28;20466;-71
2021/08/16 09:01:27;;;;;;;6.05;1.67;;;21.60;98.60;;;;;;5049588;28;20029;-70
2021/08/16 09:03:55;;;;;;;5.53;1.55;;;21.70;98.60;;;;;;5049341;28;20132;-72
2021/08/16 09:06:33;;;;;;;5.85;1.33;;;21.70;98.50;;;;;;5033975;28;20083;-69
2021/08/16 09:09:01;;;;;;;7.85;1.60;;;21.80;98.60;;;;;;5049153;28;20060;-70
2021/08/16 09:11:29;;;;;;;6.50;1.60;;;21.80;98.60;;;;;;5033084;28;20071;-70
2021/08/16 09:14:03;;;;;;;7.63;1.65;;;21.90;98.90;;;;;;5032306;28;20056;-70
2021/08/16 09:16:31;;;;;;;6.07;1.73;;;21.80;98.90;;;;;;5033696;28;20076;-70
2021/08/16 09:18:58;;;;;;;4.88;1.90;;;21.80;98.40;;;;;;5049087;28;20041;-70
2021/08/16 09:21:31;;;;;;;4.68;1.70;;;21.80;98.80;;;;;;5033839;28;20075;-70
2021/08/16 09:23:58;;;;;;;6.63;1.73;;;22.00;98.60;;;;;;5033348;28;20037;-70
2021/08/16 09:26:33;;;;;;;7.63;1.73;;;22.00;98.10;;;;;;5048930;28;20037;-70
2021/08/16 09:29:20;;;;;;;6.20;1.70;;;22.10;97.90;;;;;;5033772;28;20038;-70
2021/08/16 09:32:05;;;;;;;6.97;1.80;;;22.10;97.80;;;;;;5032112;28;20075;-70
2021/08/16 09:34:37;;;;;;;7.68;1.50;;;22.00;97.60;;;;;;5033608;28;20386;-70
2021/08/16 09:37:33;;;;;;;8.63;1.50;;;22.00;97.50;;;;;;5033123;28;20037;-70
2021/08/16 09:40:08;;;;;;;5.40;1.40;;;22.10;97.80;;;;;;5048889;28;20030;-70
2021/08/16 09:43:01;;;;;;;11.38;1.92;;;22.30;96.80;;;;;;5033463;28;20041;-71
2021/08/16 09:45:38;;;;;;;6.75;1.48;;;22.70;96.40;;;;;;5030575;28;20481;-70
2021/08/16 09:48:10;;;;;;;6.88;2.00;;;22.70;95.90;;;;;;5048069;28;20500;-71
2021/08/16 09:50:45;;;;;;;4.07;1.25;;;22.70;96.00;;;;;;5048488;28;20440;-70
2021/08/16 09:53:17;;;;;;;5.45;1.60;;;22.90;96.30;;;;;;5033094;28;20030;-70
2021/08/16 09:55:49;;;;;;;3.40;1.25;;;22.90;96.60;;;;;;5032906;28;20040;-71
2021/08/16 09:58:17;;;;;;;4.38;1.40;;;22.90;96.70;;;;;;5032911;28;20033;-71
2021/08/16 10:00:49;;;;;;;4.68;1.30;;;22.90;96.20;;;;;;5048034;28;20041;-70
2021/08/16 10:03:15;;;;;;;4.30;1.38;;;22.90;96.40;;;;;;5031443;28;20374;-70
2021/08/16 10:05:45;;;;;;;3.88;1.23;;;22.90;96.00;;;;;;5032852;28;20105;-70
2021/08/16 10:08:19;;;;;;;3.65;1.33;;;22.90;96.60;;;;;;5032749;28;20033;-70
2021/08/16 10:10:46;;;;;;;5.43;1.20;;;23.20;95.80;;;;;;5032760;28;20061;-71
2021/08/16 10:13:12;;;;;;;5.13;1.30;;;23.30;95.70;;;;;;5047907;28;20042;-70
2021/08/16 10:15:44;;;;;;;3.72;1.45;;;23.20;95.40;;;;;;5047820;28;20198;-70
2021/08/16 10:18:44;;;;;;;5.10;1.83;;;22.90;95.60;;;;;;5032299;28;20029;-70
2021/08/16 10:21:17;;;;;;;3.97;1.40;;;22.80;95.90;;;;;;5029708;28;20429;-71
2021/08/16 10:23:50;;;;;;;5.15;1.45;;;22.50;96.00;;;;;;5047458;28;20041;-70
2021/08/16 10:26:27;;;;;;;5.57;1.75;;;22.50;96.40;;;;;;5032469;28;20033;-70
2021/08/16 10:28:57;;;;;;;5.68;1.55;;;22.40;95.90;;;;;;5032553;28;20397;-70
2021/08/16 10:31:38;;;;;;;6.22;1.50;;;22.30;95.70;;;;;;5047611;28;20026;-71
2021/08/16 10:34:05;;;;;;;4.55;1.50;;;22.20;95.80;;;;;;5047839;28;20116;-71
2021/08/16 10:36:31;;;;;;;3.95;1.70;;;22.20;95.90;;;;;;5047877;28;20496;-71
2021/08/16 10:39:01;;;;;;;5.25;1.67;;;22.30;95.90;;;;;;5032565;28;20466;-71
2021/08/16 10:41:39;;;;;;;5.15;1.38;;;22.50;96.10;;;;;;5031828;28;20057;-70
2021/08/16 10:44:18;;;;;;;4.57;1.48;;;22.70;95.70;;;;;;5030707;28;20505;-70
2021/08/16 10:46:59;;;;;;;4.15;1.55;;;22.80;95.80;;;;;;5032294;28;20630;-71
2021/08/16 10:49:38;;;;;;;3.78;1.45;;;22.80;95.70;;;;;;5047551;28;20517;-70
2021/08/16 10:52:06;;;;;;;8.90;1.45;;;23.20;95.60;;;;;;5032338;28;20052;-71
2021/08/16 10:54:34;;;;;;;4.30;1.38;;;23.50;95.20;;;;;;5030806;28;20049;-71
2021/08/16 10:57:01;;;;;;;3.72;1.48;;;23.70;94.10;;;;;;5047586;28;20083;-70
2021/08/16 10:59:30;;;;;;;4.43;1.40;;;23.80;94.40;;;;;;5030785;28;20390;-70
2021/08/16 11:01:57;;;;;;;6.15;1.60;;;23.80;94.10;;;;;;5031970;28;20460;-71
2021/08/16 11:04:31;;;;;;;3.83;1.50;;;24.00;94.40;;;;;;5032080;28;20045;-71
2021/08/16 11:07:00;;;;;;;5.75;2.20;;;24.60;92.20;;;;;;5036251;28;20044;-70
2021/08/16 11:09:29;;;;;;;6.03;1.40;;;24.40;93.00;;;;;;5035953;28;20489;-70
2021/08/16 11:12:05;;;;;;;5.28;1.50;;;24.30;92.70;;;;;;5051426;28;20029;-70
2021/08/16 11:14:34;;;;;;;7.72;1.95;;;23.70;92.30;;;;;;5035962;28;20512;-70
2021/08/16 11:17:01;;;;;;;6.43;1.92;;;23.30;93.20;;;;;;5051482;28;20057;-70
2021/08/16 11:19:41;;;;;;;9.02;1.80;;;23.60;93.10;;;;;;5051410;28;20030;-71
2021/08/16 11:22:07;;;;;;;;;;;23.60;93.50;;;;;;5051182;28;20155;-70
2021/08/16 11:24:36;;;;;;;9.48;1.70;;;23.40;93.10;;;;;;5034834;28;19917;-69
2021/08/16 11:27:05;;;;;;;37.85;3.50;;;23.10;93.20;;;;;;5036019;28;20032;-70
2021/08/16 11:29:32;;;;;;;5.90;1.92;;;23.00;93.60;;;;;;5050815;28;20112;-70
2021/08/16 11:32:02;;;;;;;3.05;1.13;;;22.80;94.30;;;;;;5051288;28;20029;-70
2021/08/16 11:34:30;;;;;;;8.20;1.60;;;22.70;94.40;;;;;;5035638;28;20026;-70
2021/08/16 11:36:58;;;;;;;4.60;1.35;;;22.60;94.60;;;;;;5050844;28;20495;-69
2021/08/16 11:39:31;;;;;;;4.00;1.25;;;22.30;94.60;;;;;;5050735;28;20091;-70
2021/08/16 11:41:59;;;;;;;6.43;1.50;;;22.50;95.00;;;;;;5035644;28;20082;-71
2021/08/16 11:44:26;;;;;;;5.70;1.70;;;22.70;94.50;;;;;;5050685;28;20037;-71
2021/08/16 11:46:53;;;;;;;3.22;1.20;;;22.70;94.50;;;;;;5050926;28;20026;-71
2021/08/16 11:49:19;;;;;;;5.03;1.30;;;22.70;94.20;;;;;;5051045;28;20033;-70
2021/08/16 11:51:46;;;;;;;4.43;1.40;;;22.60;94.20;;;;;;5035428;28;20036;-71
2021/08/16 11:54:33;;;;;;;4.07;1.70;;;22.70;94.30;;;;;;5035110;28;20172;-71
2021/08/16 11:57:02;;;;;;;5.35;1.40;;;22.80;94.20;;;;;;5034163;28;20034;-70
2021/08/16 11:59:28;;;;;;;6.78;1.60;;;22.80;94.50;;;;;;5050712;28;20040;-71
2021/08/16 12:01:58;;;;;;;4.82;1.73;;;22.80;94.60;;;;;;5050423;28;20478;-71
2021/08/16 12:04:25;;;;;;;3.65;1.38;;;22.80;94.40;;;;;;5050422;28;20049;-71
2021/08/16 12:06:54;;;;;;;4.47;1.88;;;22.60;94.70;;;;;;5050557;28;20057;-71
2021/08/16 12:09:20;;;;;;;5.95;1.83;;;22.60;94.40;;;;;;5050116;28;20033;-71
2021/08/16 12:11:58;;;;;;;8.65;1.75;;;22.50;94.60;;;;;;5050473;28;20030;-72
2021/08/16 12:14:36;;;;;;;3.92;1.48;;;22.40;94.90;;;;;;5034892;28;20069;-71
2021/08/16 12:17:03;;;;;;;3.53;1.45;;;22.60;95.10;;;;;;5049449;28;20038;-71
2021/08/16 12:19:29;;;;;;;5.35;1.60;;;22.70;94.60;;;;;;5034945;28;20040;-72
2021/08/16 12:22:10;;;;;;;9.43;1.75;;;22.40;94.60;;;;;;5034590;28;20038;-72
2021/08/16 12:24:39;;;;;;;4.18;1.58;;;22.30;95.20;;;;;;5034635;28;20044;-72
2021/08/16 12:27:11;;;;;;;6.05;1.25;;;22.40;94.90;;;;;;5049773;28;20029;-72
2021/08/16 12:29:46;;;;;;;4.28;1.05;;;22.60;94.70;;;;;;5049953;28;20498;-72
2021/08/16 12:32:26;;;;;;;5.53;1.45;;;22.60;94.50;;;;;;5034416;28;20417;-72
2021/08/16 12:34:52;;;;;;;5.88;1.70;;;22.50;94.60;;;;;;5049941;28;20048;-72
2021/08/16 12:37:33;;;;;;;7.13;1.77;;;22.80;95.00;;;;;;5034422;28;20038;-72
2021/08/16 12:40:17;;;;;;;4.32;1.50;;;23.20;94.40;;;;;;5034424;28;20044;-72
2021/08/16 12:43:01;;;;;;;7.53;1.85;;;23.60;93.90;;;;;;5049550;28;20029;-72
2021/08/16 12:45:28;;;;;;;4.15;1.60;;;23.40;94.10;;;;;;5034444;28;20497;-72
2021/08/16 12:48:07;;;;;;;7.97;1.80;;;23.60;93.80;;;;;;5034157;28;20037;-72
2021/08/16 12:50:35;;;;;;;3.72;1.85;;;23.80;93.60;;;;;;5034359;28;20048;-72